Time;durP1;ratioP1;P1;durP2;ratioP2;P2;SDS_P1;SDS_P2;PMS_P1;PMS_P2;Temp;Humidity;BMP_temperature;BMP_pressure;BME280_temperature;BME280_humidity;BME280_pressure;Samples;Min_cycle;Max_cycle;Signal;HPM_P1;HPM_P2
2021/09/08 00:01:45;;;;;;;15.73;9.98;;;;;;;;;;6098151;23;20002;-67
2021/09/08 00:04:11;;;;;;;22.35;10.23;;;;;;;;;;6097794;23;20014;-67
2021/09/08 00:06:36;;;;;;;16.23;10.02;;;;;;;;;;6098193;23;19994;-67
2021/09/08 00:09:02;;;;;;;19.45;9.90;;;;;;;;;;6097939;23;20008;-68
2021/09/08 00:11:27;;;;;;;16.02;9.60;;;;;;;;;;6098197;23;20435;-67
2021/09/08 00:13:52;;;;;;;16.17;9.98;;;;;;;;;;6097684;23;20498;-69
2021/09/08 00:16:18;;;;;;;23.70;9.93;;;;;;;;;;6098108;23;20111;-65
2021/09/08 00:18:43;;;;;;;16.63;9.35;;;;;;;;;;6098128;23;20340;-67
2021/09/08 00:21:09;;;;;;;22.27;9.68;;;;;;;;;;6097940;23;20005;-67
2021/09/08 00:23:34;;;;;;;19.75;9.82;;;;;;;;;;6097921;23;20392;-66
2021/09/08 00:26:00;;;;;;;27.80;9.73;;;;;;;;;;6097723;23;20009;-67
2021/09/08 00:28:25;;;;;;;16.30;9.75;;;;;;;;;;6098146;23;20301;-65
2021/09/08 00:30:50;;;;;;;18.92;9.45;;;;;;;;;;6097738;23;19999;-67
2021/09/08 00:33:16;;;;;;;16.48;9.20;;;;;;;;;;6097722;23;20438;-67
2021/09/08 00:35:41;;;;;;;20.10;9.60;;;;;;;;;;6098089;23;20038;-66
2021/09/08 00:38:11;;;;;;;15.73;9.73;;;;;;;;;;6071841;23;20013;-68
2021/09/08 00:40:36;;;;;;;;;;;;;;;;;;6098606;23;20435;-67
2021/09/08 00:43:01;;;;;;;19.45;9.00;;;;;;;;;;6097773;23;19905;-68
2021/09/08 00:45:27;;;;;;;15.13;9.10;;;;;;;;;;6097723;23;20006;-69
2021/09/08 00:47:52;;;;;;;20.88;9.90;;;;;;;;;;6097483;23;19998;-70
2021/09/08 00:50:17;;;;;;;20.70;9.70;;;;;;;;;;6097894;23;20002;-68
2021/09/08 00:52:43;;;;;;;18.90;9.50;;;;;;;;;;6097546;23;20093;-68
2021/09/08 00:55:10;;;;;;;14.30;8.75;;;;;;;;;;6097554;23;20038;-68
2021/09/08 00:57:36;;;;;;;17.33;9.27;;;;;;;;;;6072264;23;20002;-69
2021/09/08 01:00:03;;;;;;;16.10;9.15;;;;;;;;;;6071788;23;20003;-67
2021/09/08 01:02:28;;;;;;;14.40;8.75;;;;;;;;;;6097779;23;20372;-68
2021/09/08 01:04:54;;;;;;;24.15;9.02;;;;;;;;;;6097206;23;20108;-68
2021/09/08 01:07:19;;;;;;;16.98;9.82;;;;;;;;;;6097572;23;20077;-67
2021/09/08 01:09:46;;;;;;;12.70;8.20;;;;;;;;;;6097516;23;20001;-68
2021/09/08 01:12:12;;;;;;;13.82;8.20;;;;;;;;;;6097343;23;20112;-66
2021/09/08 01:14:40;;;;;;;12.63;8.85;;;;;;;;;;6097537;23;20029;-66
2021/09/08 01:17:06;;;;;;;16.40;8.60;;;;;;;;;;6097263;23;20022;-68
2021/09/08 01:19:31;;;;;;;16.85;9.02;;;;;;;;;;6097732;23;20009;-68
2021/09/08 01:21:56;;;;;;;12.65;8.25;;;;;;;;;;6096998;23;20003;-65
2021/09/08 01:24:23;;;;;;;14.43;7.97;;;;;;;;;;6097985;23;19998;-70
2021/09/08 01:26:48;;;;;;;14.98;7.88;;;;;;;;;;6097842;23;19999;-69
2021/09/08 01:29:14;;;;;;;14.02;8.32;;;;;;;;;;6097163;23;20050;-66
2021/09/08 01:31:41;;;;;;;14.05;8.60;;;;;;;;;;6097376;23;20034;-66
2021/09/08 01:34:07;;;;;;;11.52;7.95;;;;;;;;;;6096860;23;19998;-66
2021/09/08 01:36:39;;;;;;;15.15;8.05;;;;;;;;;;6097377;23;20045;-64
2021/09/08 01:39:05;;;;;;;11.55;8.30;;;;;;;;;;6097256;23;20002;-68
2021/09/08 01:41:31;;;;;;;12.73;8.50;;;;;;;;;;6097299;23;20073;-69
2021/09/08 01:43:56;;;;;;;13.07;8.30;;;;;;;;;;6096834;23;20038;-67
2021/09/08 01:46:22;;;;;;;17.33;8.00;;;;;;;;;;6071767;23;20339;-66
2021/09/08 01:48:50;;;;;;;11.38;7.68;;;;;;;;;;6097334;23;20085;-66
2021/09/08 01:51:16;;;;;;;13.32;7.93;;;;;;;;;;6096818;23;20057;-66
2021/09/08 01:53:41;;;;;;;15.75;7.90;;;;;;;;;;6097051;23;20014;-67
2021/09/08 01:56:07;;;;;;;17.85;9.02;;;;;;;;;;6071251;23;19999;-66
2021/09/08 01:58:33;;;;;;;15.93;7.63;;;;;;;;;;6097285;23;20005;-69
2021/09/08 02:00:58;;;;;;;16.73;9.13;;;;;;;;;;6096964;23;20077;-65
2021/09/08 02:03:24;;;;;;;12.85;8.35;;;;;;;;;;6096831;23;20018;-67
2021/09/08 02:05:49;;;;;;;14.13;8.30;;;;;;;;;;6096849;23;20431;-69
2021/09/08 02:08:15;;;;;;;17.63;8.32;;;;;;;;;;6096499;23;20086;-67
2021/09/08 02:10:40;;;;;;;15.48;10.18;;;;;;;;;;6096847;23;20030;-68
2021/09/08 02:13:06;;;;;;;17.15;9.02;;;;;;;;;;6096760;23;20486;-66
2021/09/08 02:15:32;;;;;;;13.00;8.05;;;;;;;;;;6097053;23;20468;-66
2021/09/08 02:17:57;;;;;;;14.95;8.95;;;;;;;;;;6096647;23;20003;-68
2021/09/08 02:20:23;;;;;;;18.05;9.32;;;;;;;;;;6096992;23;20002;-67
2021/09/08 02:22:48;;;;;;;14.80;8.43;;;;;;;;;;6096742;23;20022;-69
2021/09/08 02:25:14;;;;;;;16.50;9.00;;;;;;;;;;6096781;23;20029;-69
2021/09/08 02:27:39;;;;;;;13.35;9.07;;;;;;;;;;6071418;23;20086;-68
2021/09/08 02:30:05;;;;;;;15.43;8.75;;;;;;;;;;6096443;23;20367;-66
2021/09/08 02:32:31;;;;;;;15.85;9.00;;;;;;;;;;6096794;23;19994;-67
2021/09/08 02:34:56;;;;;;;13.35;8.40;;;;;;;;;;6096602;23;20085;-68
2021/09/08 02:37:22;;;;;;;14.55;8.82;;;;;;;;;;6096715;23;20018;-65
2021/09/08 02:39:47;;;;;;;15.70;8.32;;;;;;;;;;6096779;23;19998;-67
2021/09/08 02:42:13;;;;;;;14.55;8.98;;;;;;;;;;6096402;23;20017;-67
2021/09/08 02:44:38;;;;;;;18.52;8.73;;;;;;;;;;6096747;23;20376;-66
2021/09/08 02:47:04;;;;;;;13.77;8.27;;;;;;;;;;6071133;23;20335;-69
2021/09/08 02:49:30;;;;;;;14.50;8.50;;;;;;;;;;6096836;23;20006;-66
2021/09/08 02:51:55;;;;;;;14.75;8.93;;;;;;;;;;6096104;23;20033;-69
2021/09/08 02:54:21;;;;;;;15.25;8.25;;;;;;;;;;6096786;23;20013;-66
2021/09/08 02:56:46;;;;;;;18.65;9.00;;;;;;;;;;6096781;23;19998;-66
2021/09/08 02:59:12;;;;;;;18.85;9.27;;;;;;;;;;6096510;23;20077;-69
2021/09/08 03:01:38;;;;;;;13.48;8.90;;;;;;;;;;6096535;23;19999;-68
2021/09/08 03:04:03;;;;;;;13.35;8.10;;;;;;;;;;6092761;23;20432;-67
2021/09/08 03:06:29;;;;;;;14.73;8.50;;;;;;;;;;6096553;23;20010;-66
2021/09/08 03:08:57;;;;;;;16.52;9.27;;;;;;;;;;6096451;23;20030;-65
2021/09/08 03:11:23;;;;;;;17.45;9.88;;;;;;;;;;6096536;23;20007;-68
2021/09/08 03:13:48;;;;;;;21.85;9.50;;;;;;;;;;6070871;23;20444;-67
2021/09/08 03:16:15;;;;;;;18.95;10.75;;;;;;;;;;6096361;23;20014;-68
2021/09/08 03:18:40;;;;;;;16.35;9.07;;;;;;;;;;6096730;23;20086;-68
2021/09/08 03:21:06;;;;;;;13.93;8.80;;;;;;;;;;6097438;23;20025;-68
2021/09/08 03:23:33;;;;;;;17.20;8.38;;;;;;;;;;6072938;23;20017;-67
2021/09/08 03:25:58;;;;;;;17.00;9.60;;;;;;;;;;6098301;23;20331;-67
2021/09/08 03:28:24;;;;;;;16.92;10.07;;;;;;;;;;6098760;23;19994;-68
2021/09/08 03:30:49;;;;;;;17.35;10.02;;;;;;;;;;6098634;23;20085;-68
2021/09/08 03:33:14;;;;;;;16.88;9.30;;;;;;;;;;6098168;23;20344;-67
2021/09/08 03:35:40;;;;;;;18.55;9.50;;;;;;;;;;6098641;23;20025;-67
2021/09/08 03:38:05;;;;;;;14.73;8.80;;;;;;;;;;6098347;23;19995;-67
2021/09/08 03:40:31;;;;;;;14.60;8.82;;;;;;;;;;6100486;23;20355;-68
2021/09/08 03:42:56;;;;;;;22.77;10.13;;;;;;;;;;6098490;23;20080;-67
2021/09/08 03:45:22;;;;;;;15.68;9.30;;;;;;;;;;6098585;23;20327;-66
2021/09/08 03:47:47;;;;;;;17.88;9.23;;;;;;;;;;6098414;23;20003;-68
2021/09/08 03:50:13;;;;;;;16.73;9.75;;;;;;;;;;6098131;23;20002;-68
2021/09/08 03:52:39;;;;;;;16.77;9.65;;;;;;;;;;6098270;23;20018;-67
2021/09/08 03:55:05;;;;;;;15.77;10.25;;;;;;;;;;6098215;23;20031;-66
2021/09/08 03:57:30;;;;;;;21.50;9.73;;;;;;;;;;6098408;23;20005;-65
2021/09/08 03:59:55;;;;;;;18.08;9.73;;;;;;;;;;6098003;23;20340;-65
2021/09/08 04:02:21;;;;;;;17.20;10.15;;;;;;;;;;6098282;23;20089;-66
2021/09/08 04:04:46;;;;;;;27.20;10.25;;;;;;;;;;6098041;23;20015;-67
2021/09/08 04:07:11;;;;;;;19.45;10.30;;;;;;;;;;6098075;23;20009;-67
2021/09/08 04:09:37;;;;;;;20.30;10.27;;;;;;;;;;6098172;23;20026;-66
2021/09/08 04:12:02;;;;;;;18.50;10.15;;;;;;;;;;6097803;23;20005;-66
2021/09/08 04:14:28;;;;;;;21.92;10.18;;;;;;;;;;6072549;23;20555;-66
2021/09/08 04:16:53;;;;;;;15.43;9.30;;;;;;;;;;6097920;23;20061;-66
2021/09/08 04:19:20;;;;;;;18.77;9.90;;;;;;;;;;6098197;23;20024;-68
2021/09/08 04:21:46;;;;;;;27.17;10.75;;;;;;;;;;6097962;23;20002;-66
2021/09/08 04:24:11;;;;;;;18.42;9.00;;;;;;;;;;6097651;23;20629;-66
2021/09/08 04:26:36;;;;;;;24.05;8.82;;;;;;;;;;6097959;23;20065;-65
2021/09/08 04:29:02;;;;;;;16.48;8.65;;;;;;;;;;6097908;23;20033;-67
2021/09/08 04:31:27;;;;;;;16.40;8.63;;;;;;;;;;6098033;23;20022;-68
2021/09/08 04:33:53;;;;;;;16.70;8.40;;;;;;;;;;6097312;23;19998;-66
2021/09/08 04:36:18;;;;;;;16.33;8.40;;;;;;;;;;6098056;23;19998;-66
2021/09/08 04:38:45;;;;;;;23.90;9.50;;;;;;;;;;6097640;23;19994;-67
2021/09/08 04:41:11;;;;;;;16.23;8.60;;;;;;;;;;6097769;23;19999;-67
2021/09/08 04:43:37;;;;;;;20.52;8.98;;;;;;;;;;6098071;23;20423;-67
2021/09/08 04:46:02;;;;;;;18.00;8.63;;;;;;;;;;6097377;23;19998;-66
2021/09/08 04:48:28;;;;;;;14.48;7.80;;;;;;;;;;6097669;23;19990;-66
2021/09/08 04:50:53;;;;;;;14.52;8.57;;;;;;;;;;6097737;23;19998;-68
2021/09/08 04:53:18;;;;;;;13.98;8.65;;;;;;;;;;6097512;23;20014;-66
2021/09/08 04:55:44;;;;;;;15.68;8.73;;;;;;;;;;6072427;23;20006;-66
2021/09/08 04:58:09;;;;;;;19.15;8.35;;;;;;;;;;6097179;23;20002;-67
2021/09/08 05:00:35;;;;;;;13.73;7.88;;;;;;;;;;6097942;23;19994;-68
2021/09/08 05:03:00;;;;;;;18.20;8.40;;;;;;;;;;6097282;23;20025;-67
2021/09/08 05:05:26;;;;;;;11.50;6.93;;;;;;;;;;6097757;23;20309;-67
2021/09/08 05:07:52;;;;;;;13.20;8.02;;;;;;;;;;6096944;23;20093;-66
2021/09/08 05:10:18;;;;;;;12.88;8.32;;;;;;;;;;6097542;23;20037;-66
2021/09/08 05:12:43;;;;;;;21.02;7.78;;;;;;;;;;6097619;23;20399;-66
2021/09/08 05:15:09;;;;;;;17.55;7.72;;;;;;;;;;6097259;23;20037;-66
2021/09/08 05:17:35;;;;;;;23.08;10.80;;;;;;;;;;6097735;23;19998;-67
2021/09/08 05:20:01;;;;;;;17.67;8.70;;;;;;;;;;6096953;23;20449;-67
2021/09/08 05:22:27;;;;;;;18.77;8.35;;;;;;;;;;6097320;23;20009;-65
2021/09/08 05:24:52;;;;;;;20.27;8.55;;;;;;;;;;6097436;23;20077;-68
2021/09/08 05:27:17;;;;;;;21.40;8.55;;;;;;;;;;6097516;23;19994;-70
2021/09/08 05:29:43;;;;;;;17.85;9.05;;;;;;;;;;6097362;23;20002;-68
2021/09/08 05:32:09;;;;;;;20.42;8.40;;;;;;;;;;6097032;23;19994;-66
2021/09/08 05:34:34;;;;;;;14.73;8.32;;;;;;;;;;6097422;23;20069;-67
2021/09/08 05:36:59;;;;;;;25.13;9.10;;;;;;;;;;6071722;23;19999;-68
2021/09/08 05:39:25;;;;;;;20.83;9.48;;;;;;;;;;6096997;23;20003;-66
2021/09/08 05:41:50;;;;;;;15.15;9.23;;;;;;;;;;6097272;23;20342;-66
2021/09/08 05:44:16;;;;;;;20.00;8.45;;;;;;;;;;6096509;23;19995;-67
2021/09/08 05:46:41;;;;;;;18.08;9.75;;;;;;;;;;6095587;23;20006;-66
2021/09/08 05:49:06;;;;;;;19.40;8.00;;;;;;;;;;6046274;23;20003;-66
2021/09/08 05:51:32;;;;;;;21.35;9.75;;;;;;;;;;6096621;23;20002;-65
2021/09/08 05:53:57;;;;;;;18.58;8.15;;;;;;;;;;6101479;23;20428;-67
2021/09/08 05:56:22;;;;;;;24.95;9.70;;;;;;;;;;6097642;23;20002;-65
2021/09/08 05:58:48;;;;;;;29.58;9.68;;;;;;;;;;6096076;23;20420;-68
2021/09/08 06:01:13;;;;;;;26.23;9.38;;;;;;;;;;6095320;23;20077;-66
2021/09/08 06:03:39;;;;;;;22.55;9.60;;;;;;;;;;6095796;23;20022;-66
2021/09/08 06:06:04;;;;;;;31.05;8.80;;;;;;;;;;6094572;23;20467;-66
2021/09/08 06:08:30;;;;;;;18.27;9.48;;;;;;;;;;6067216;23;20017;-69
2021/09/08 06:10:55;;;;;;;34.22;9.45;;;;;;;;;;6094352;23;20026;-69
2021/09/08 06:13:21;;;;;;;20.55;8.45;;;;;;;;;;6094394;23;20057;-68
2021/09/08 06:15:46;;;;;;;24.20;8.45;;;;;;;;;;6094203;23;19998;-66
2021/09/08 06:18:12;;;;;;;26.63;9.63;;;;;;;;;;6094234;23;20006;-67
2021/09/08 06:20:37;;;;;;;21.33;8.73;;;;;;;;;;6095032;23;20449;-68
2021/09/08 06:23:02;;;;;;;17.83;8.90;;;;;;;;;;6095124;23;20327;-69
2021/09/08 06:25:28;;;;;;;17.80;7.95;;;;;;;;;;6095111;23;19994;-66
2021/09/08 06:27:56;;;;;;;14.32;7.43;;;;;;;;;;6094351;23;19998;-72
2021/09/08 06:30:23;;;;;;;18.20;8.10;;;;;;;;;;6095326;23;20053;-68
2021/09/08 06:32:48;;;;;;;30.08;9.35;;;;;;;;;;6096070;23;20006;-67
2021/09/08 06:35:14;;;;;;;12.82;7.63;;;;;;;;;;6094747;23;20007;-67
2021/09/08 06:37:41;;;;;;;21.85;8.02;;;;;;;;;;6095369;23;20030;-67
2021/09/08 06:40:06;;;;;;;15.55;8.00;;;;;;;;;;6095141;23;20427;-68
2021/09/08 06:42:32;;;;;;;26.52;9.60;;;;;;;;;;6095783;23;20002;-65
2021/09/08 06:44:57;;;;;;;20.60;8.38;;;;;;;;;;6091093;23;20002;-69
2021/09/08 06:47:22;;;;;;;21.63;8.48;;;;;;;;;;6067564;23;20065;-67
2021/09/08 06:49:48;;;;;;;20.80;8.48;;;;;;;;;;6095319;23;20002;-69
2021/09/08 06:52:14;;;;;;;19.48;8.20;;;;;;;;;;6062977;23;20025;-70
2021/09/08 06:54:40;;;;;;;17.65;7.32;;;;;;;;;;6092728;23;20428;-68
2021/09/08 06:57:05;;;;;;;18.92;7.32;;;;;;;;;;6095443;23;20036;-68
2021/09/08 06:59:30;;;;;;;13.10;6.90;;;;;;;;;;6095257;23;19998;-69
2021/09/08 07:01:56;;;;;;;25.70;8.38;;;;;;;;;;6069699;23;20029;-70
2021/09/08 07:04:21;;;;;;;11.90;6.40;;;;;;;;;;6069229;23;20025;-71
2021/09/08 07:06:46;;;;;;;12.55;6.82;;;;;;;;;;6069421;23;20428;-69
2021/09/08 07:09:12;;;;;;;12.93;6.70;;;;;;;;;;6091479;23;20384;-66
2021/09/08 07:11:37;;;;;;;14.40;7.45;;;;;;;;;;6094305;23;20005;-67
2021/09/08 07:14:03;;;;;;;14.60;7.35;;;;;;;;;;6094383;23;20029;-68
2021/09/08 07:16:29;;;;;;;14.18;6.47;;;;;;;;;;6094250;23;20002;-67
2021/09/08 07:18:54;;;;;;;18.08;6.68;;;;;;;;;;6094957;23;20013;-70
2021/09/08 07:21:20;;;;;;;13.93;6.03;;;;;;;;;;6094751;23;20002;-70
2021/09/08 07:23:45;;;;;;;15.25;6.80;;;;;;;;;;6093678;23;20002;-70
2021/09/08 07:26:10;;;;;;;13.88;6.30;;;;;;;;;;6094973;23;20002;-68
2021/09/08 07:28:36;;;;;;;22.77;7.00;;;;;;;;;;6095417;23;20009;-68
2021/09/08 07:31:01;;;;;;;14.82;5.68;;;;;;;;;;6068724;23;20394;-68
2021/09/08 07:33:26;;;;;;;12.93;6.38;;;;;;;;;;6094275;23;20002;-67
2021/09/08 07:35:52;;;;;;;11.85;6.60;;;;;;;;;;6095025;23;20006;-67
2021/09/08 07:38:18;;;;;;;15.70;5.85;;;;;;;;;;6093545;23;20005;-67
2021/09/08 07:40:44;;;;;;;15.77;6.07;;;;;;;;;;6069300;23;20002;-66
2021/09/08 07:43:09;;;;;;;9.95;5.60;;;;;;;;;;6094196;23;20054;-71
2021/09/08 07:45:35;;;;;;;12.20;5.47;;;;;;;;;;6094130;23;20006;-71
2021/09/08 07:48:00;;;;;;;14.02;5.72;;;;;;;;;;6094599;23;20003;-65
2021/09/08 07:50:26;;;;;;;9.55;5.55;;;;;;;;;;6094184;23;20003;-69
2021/09/08 07:52:51;;;;;;;13.82;5.97;;;;;;;;;;6093238;23;20011;-71
2021/09/08 07:55:16;;;;;;;10.23;5.13;;;;;;;;;;6094680;23;20325;-72
2021/09/08 07:57:42;;;;;;;20.00;6.32;;;;;;;;;;6095766;23;19998;-74
2021/09/08 08:00:08;;;;;;;17.10;6.07;;;;;;;;;;6069346;23;20034;-72
2021/09/08 08:02:43;;;;;;;12.38;5.18;;;;;;;;;;6094817;23;20009;-71
2021/09/08 08:05:08;;;;;;;21.45;6.72;;;;;;;;;;6094340;23;20053;-67
2021/09/08 08:07:34;;;;;;;16.88;5.70;;;;;;;;;;6046078;23;20332;-68
2021/09/08 08:09:59;;;;;;;13.45;5.97;;;;;;;;;;6096637;23;20002;-67
2021/09/08 08:12:28;;;;;;;16.40;5.10;;;;;;;;;;6096186;23;19994;-67
2021/09/08 08:14:53;;;;;;;8.57;4.93;;;;;;;;;;6096574;23;20133;-73
2021/09/08 08:17:19;;;;;;;19.63;5.40;;;;;;;;;;6096853;23;20368;-70
2021/09/08 08:19:47;;;;;;;15.10;5.07;;;;;;;;;;6071953;23;19998;-66
2021/09/08 08:22:13;;;;;;;10.55;4.90;;;;;;;;;;6095080;23;20372;-67
2021/09/08 08:24:39;;;;;;;69.93;8.48;;;;;;;;;;6096590;23;20006;-70
2021/09/08 08:27:04;;;;;;;17.52;4.40;;;;;;;;;;6096428;23;20009;-68
2021/09/08 08:29:30;;;;;;;15.93;4.70;;;;;;;;;;6095790;23;20010;-76
2021/09/08 08:31:55;;;;;;;14.70;4.25;;;;;;;;;;6070663;23;20001;-69
2021/09/08 08:34:20;;;;;;;9.93;4.72;;;;;;;;;;6096546;23;20011;-69
2021/09/08 08:36:46;;;;;;;34.63;6.25;;;;;;;;;;6096599;23;20002;-68
2021/09/08 08:39:11;;;;;;;8.45;4.03;;;;;;;;;;6096151;23;20003;-66
2021/09/08 08:41:37;;;;;;;78.88;11.73;;;;;;;;;;6093989;23;20005;-69
2021/09/08 08:44:03;;;;;;;11.20;4.07;;;;;;;;;;6095075;23;20073;-74
2021/09/08 08:46:29;;;;;;;8.27;4.50;;;;;;;;;;6095421;23;19998;-72
2021/09/08 08:48:54;;;;;;;11.10;3.67;;;;;;;;;;6070590;23;20006;-72
2021/09/08 08:51:21;;;;;;;10.35;3.78;;;;;;;;;;6094906;23;20002;-71
2021/09/08 08:53:49;;;;;;;14.25;3.45;;;;;;;;;;6092698;23;20425;-69
2021/09/08 08:56:14;;;;;;;17.38;3.35;;;;;;;;;;6094083;23;20053;-72
2021/09/08 08:58:39;;;;;;;9.48;3.80;;;;;;;;;;6095930;23;20000;-71
2021/09/08 09:01:19;;;;;;;16.73;3.60;;;;;;;;;;6096078;23;20094;-70
2021/09/08 09:04:04;;;;;;;12.90;3.08;;;;;;;;;;6096104;23;20085;-71
2021/09/08 09:06:29;;;;;;;9.48;3.05;;;;;;;;;;6070691;23;20013;-74
2021/09/08 09:09:05;;;;;;;8.43;3.53;;;;;;;;;;6047040;23;20439;-70
2021/09/08 09:11:31;;;;;;;8.25;3.53;;;;;;;;;;6064720;23;19994;-73
2021/09/08 09:13:56;;;;;;;7.75;3.13;;;;;;;;;;6088024;23;20442;-65
2021/09/08 09:16:26;;;;;;;17.58;3.83;;;;;;;;;;6095963;23;20024;-65
2021/09/08 09:18:51;;;;;;;8.23;3.28;;;;;;;;;;6095618;23;20022;-72
2021/09/08 09:21:17;;;;;;;6.18;3.42;;;;;;;;;;6096038;23;20336;-71
2021/09/08 09:23:55;;;;;;;7.93;3.10;;;;;;;;;;6096173;23;20372;-71
2021/09/08 09:26:38;;;;;;;7.77;3.47;;;;;;;;;;6095261;23;20082;-71
2021/09/08 09:29:05;;;;;;;8.88;3.17;;;;;;;;;;6095462;23;19999;-70
2021/09/08 09:31:30;;;;;;;10.52;3.50;;;;;;;;;;6070574;23;20433;-70
2021/09/08 09:33:57;;;;;;;5.28;3.17;;;;;;;;;;6095878;23;20006;-70
2021/09/08 09:36:23;;;;;;;6.93;2.72;;;;;;;;;;6070078;23;20003;-69
2021/09/08 09:38:49;;;;;;;6.18;2.92;;;;;;;;;;6047164;23;20006;-70
2021/09/08 09:41:22;;;;;;;6.28;3.20;;;;;;;;;;6064693;23;20432;-70
2021/09/08 09:43:47;;;;;;;10.55;3.65;;;;;;;;;;6070051;23;20426;-71
2021/09/08 09:46:13;;;;;;;11.50;3.65;;;;;;;;;;6069783;23;20012;-70
2021/09/08 09:48:38;;;;;;;9.07;3.22;;;;;;;;;;6069411;23;20010;-69
2021/09/08 09:51:04;;;;;;;10.07;3.30;;;;;;;;;;6094403;23;20006;-68
2021/09/08 09:53:30;;;;;;;7.63;3.13;;;;;;;;;;6094985;23;20173;-67
2021/09/08 09:55:56;;;;;;;8.63;3.30;;;;;;;;;;6074787;23;20084;-68
2021/09/08 09:58:21;;;;;;;7.55;2.78;;;;;;;;;;6076394;23;20013;-70
2021/09/08 10:00:47;;;;;;;9.38;3.13;;;;;;;;;;6095993;23;20050;-68
2021/09/08 10:03:12;;;;;;;6.50;2.92;;;;;;;;;;6095334;23;20022;-69
2021/09/08 10:05:38;;;;;;;6.18;3.05;;;;;;;;;;6070089;23;20323;-69
2021/09/08 10:08:04;;;;;;;8.18;3.08;;;;;;;;;;6095945;23;20006;-69
2021/09/08 10:10:32;;;;;;;7.82;3.67;;;;;;;;;;6094486;23;20006;-68
2021/09/08 10:13:01;;;;;;;6.32;2.97;;;;;;;;;;6094470;23;20069;-68
2021/09/08 10:15:27;;;;;;;17.42;4.20;;;;;;;;;;6096235;23;20017;-66
2021/09/08 10:17:53;;;;;;;10.57;3.67;;;;;;;;;;6095748;23;20005;-63
2021/09/08 10:20:19;;;;;;;13.25;3.45;;;;;;;;;;6094920;23;19995;-64
2021/09/08 10:22:45;;;;;;;6.03;3.08;;;;;;;;;;6095192;23;20305;-70
2021/09/08 10:25:12;;;;;;;16.95;3.38;;;;;;;;;;6095941;23;20002;-67
2021/09/08 10:27:38;;;;;;;7.75;2.85;;;;;;;;;;6063351;23;20440;-72
2021/09/08 10:30:03;;;;;;;8.77;3.20;;;;;;;;;;6063671;23;20046;-75
2021/09/08 10:32:29;;;;;;;5.97;3.47;;;;;;;;;;6094259;23;20005;-71
2021/09/08 10:34:54;;;;;;;22.45;4.10;;;;;;;;;;6093442;23;20021;-72
2021/09/08 10:37:20;;;;;;;5.20;3.50;;;;;;;;;;6096032;23;20006;-73
2021/09/08 10:39:47;;;;;;;7.68;3.33;;;;;;;;;;6095488;23;20061;-70
2021/09/08 10:42:12;;;;;;;10.10;3.17;;;;;;;;;;6093824;23;20006;-73
2021/09/08 10:44:39;;;;;;;6.20;3.08;;;;;;;;;;6094013;23;20003;-67
2021/09/08 10:47:05;;;;;;;8.70;3.88;;;;;;;;;;6070110;23;20010;-68
2021/09/08 10:49:43;;;;;;;6.78;3.28;;;;;;;;;;6095097;23;19999;-68
2021/09/08 10:52:09;;;;;;;7.50;3.40;;;;;;;;;;6094772;23;20010;-68
2021/09/08 10:54:53;;;;;;;10.02;3.40;;;;;;;;;;6069936;23;20053;-68
2021/09/08 10:57:37;;;;;;;8.73;3.92;;;;;;;;;;6069759;23;20351;-65
2021/09/08 11:00:03;;;;;;;7.22;3.55;;;;;;;;;;6094704;23;20359;-65
2021/09/08 11:02:29;;;;;;;7.68;3.33;;;;;;;;;;6095307;23;19998;-67
2021/09/08 11:05:00;;;;;;;9.23;3.60;;;;;;;;;;6068720;23;20022;-65
2021/09/08 11:07:26;;;;;;;10.38;3.72;;;;;;;;;;6095316;23;20002;-64
2021/09/08 11:09:51;;;;;;;5.25;2.95;;;;;;;;;;6095242;23;19998;-65
2021/09/08 11:12:16;;;;;;;7.13;3.88;;;;;;;;;;6094941;23;20069;-66
2021/09/08 11:14:49;;;;;;;7.10;3.00;;;;;;;;;;6095597;23;20014;-64
2021/09/08 11:17:19;;;;;;;6.00;3.63;;;;;;;;;;6064819;23;20058;-69
2021/09/08 11:19:51;;;;;;;7.43;3.17;;;;;;;;;;6094006;23;20026;-71
2021/09/08 11:22:17;;;;;;;6.28;3.45;;;;;;;;;;6069828;23;20009;-73
2021/09/08 11:24:42;;;;;;;10.63;3.28;;;;;;;;;;6095185;23;20002;-72
2021/09/08 11:27:08;;;;;;;4.95;3.38;;;;;;;;;;6094778;23;20416;-71
2021/09/08 11:29:34;;;;;;;12.43;4.25;;;;;;;;;;6095534;23;20003;-71
2021/09/08 11:31:59;;;;;;;7.38;3.33;;;;;;;;;;6092945;23;20428;-74
2021/09/08 11:34:25;;;;;;;7.95;3.55;;;;;;;;;;6093579;23;20006;-75
2021/09/08 11:36:52;;;;;;;8.52;3.92;;;;;;;;;;6046637;23;20086;-75
2021/09/08 11:39:17;;;;;;;7.78;2.97;;;;;;;;;;6046988;23;20085;-75
2021/09/08 11:41:56;;;;;;;7.28;3.90;;;;;;;;;;6095408;23;20088;-74
2021/09/08 11:44:22;;;;;;;6.85;3.67;;;;;;;;;;6042436;23;20010;-75
2021/09/08 11:46:47;;;;;;;11.60;4.03;;;;;;;;;;6090363;23;20081;-74
2021/09/08 11:49:13;;;;;;;6.97;3.42;;;;;;;;;;6097043;23;20066;-75
2021/09/08 11:51:40;;;;;;;41.05;4.63;;;;;;;;;;6097938;23;19999;-72
2021/09/08 11:54:07;;;;;;;5.45;3.20;;;;;;;;;;6096504;23;20017;-76
2021/09/08 11:56:33;;;;;;;8.07;4.00;;;;;;;;;;6071133;23;20454;-72
2021/09/08 11:59:01;;;;;;;11.63;3.47;;;;;;;;;;6096799;23;19999;-72
2021/09/08 12:01:39;;;;;;;8.10;3.42;;;;;;;;;;6097719;23;20115;-74
2021/09/08 12:04:08;;;;;;;8.45;3.38;;;;;;;;;;6096516;23;20034;-74
2021/09/08 12:06:53;;;;;;;5.53;3.15;;;;;;;;;;6070889;23;20010;-74
2021/09/08 12:09:23;;;;;;;15.35;3.65;;;;;;;;;;6096086;23;20021;-76
2021/09/08 12:11:53;;;;;;;199.70;16.67;;;;;;;;;;6095610;23;20030;-74
2021/09/08 12:14:21;;;;;;;8.27;3.72;;;;;;;;;;6070831;23;20061;-78
2021/09/08 12:16:47;;;;;;;7.85;4.40;;;;;;;;;;6047775;23;20057;-77
2021/09/08 12:19:13;;;;;;;14.63;4.10;;;;;;;;;;6048045;23;20033;-77
2021/09/08 12:21:39;;;;;;;4.30;3.25;;;;;;;;;;6071694;23;20018;-77
2021/09/08 12:24:23;;;;;;;6.32;3.47;;;;;;;;;;6071053;23;20006;-76
2021/09/08 12:26:50;;;;;;;20.67;4.55;;;;;;;;;;6071324;23;20336;-78
2021/09/08 12:29:17;;;;;;;7.20;3.10;;;;;;;;;;6049225;23;20002;-78
2021/09/08 12:31:46;;;;;;;16.88;3.63;;;;;;;;;;6071916;23;20006;-78
2021/09/08 12:34:12;;;;;;;9.63;3.55;;;;;;;;;;6047051;23;20045;-78
2021/09/08 12:36:37;;;;;;;11.45;3.33;;;;;;;;;;6047641;23;20428;-66
2021/09/08 12:39:10;;;;;;;6.72;3.60;;;;;;;;;;6096055;23;20002;-66
2021/09/08 12:41:36;;;;;;;6.97;3.45;;;;;;;;;;6094606;23;20006;-69
2021/09/08 12:44:03;;;;;;;9.90;3.75;;;;;;;;;;6096448;23;20013;-68
2021/09/08 12:46:48;;;;;;;4.78;3.00;;;;;;;;;;6070900;23;19998;-69
2021/09/08 12:49:15;;;;;;;7.28;3.78;;;;;;;;;;6095744;23;20086;-67
2021/09/08 12:51:41;;;;;;;16.13;3.92;;;;;;;;;;6096862;23;20045;-67
2021/09/08 12:54:09;;;;;;;21.30;4.32;;;;;;;;;;6094794;23;20006;-67
2021/09/08 12:56:36;;;;;;;5.90;3.00;;;;;;;;;;6046641;23;20455;-68
2021/09/08 12:59:06;;;;;;;18.42;4.28;;;;;;;;;;6070817;23;19999;-68
2021/09/08 13:01:32;;;;;;;8.02;3.33;;;;;;;;;;6095797;23;20003;-67
2021/09/08 13:03:58;;;;;;;4.95;3.03;;;;;;;;;;6094986;23;20038;-67
2021/09/08 13:06:23;;;;;;;5.75;3.10;;;;;;;;;;6094967;23;20002;-67
2021/09/08 13:08:49;;;;;;;10.75;3.90;;;;;;;;;;6095221;23;20002;-68
2021/09/08 13:11:14;;;;;;;9.23;3.67;;;;;;;;;;6095262;23;20005;-68
2021/09/08 13:13:41;;;;;;;6.47;3.30;;;;;;;;;;6095178;23;20009;-66
2021/09/08 13:16:07;;;;;;;7.32;3.33;;;;;;;;;;6096024;23;19999;-67
2021/09/08 13:18:33;;;;;;;14.07;4.10;;;;;;;;;;6095862;23;20053;-67
2021/09/08 13:20:59;;;;;;;5.72;3.10;;;;;;;;;;6095328;23;20063;-67
2021/09/08 13:23:25;;;;;;;4.32;3.08;;;;;;;;;;6094906;23;20380;-67
2021/09/08 13:25:51;;;;;;;4.60;3.40;;;;;;;;;;6095232;23;20078;-67
2021/09/08 13:28:16;;;;;;;5.80;3.10;;;;;;;;;;6070640;23;20045;-67
2021/09/08 13:30:42;;;;;;;4.65;3.05;;;;;;;;;;6095631;23;20028;-67
2021/09/08 13:33:08;;;;;;;5.97;3.40;;;;;;;;;;6094889;23;19990;-68
2021/09/08 13:35:34;;;;;;;10.23;3.22;;;;;;;;;;6095467;23;20081;-68
2021/09/08 13:37:59;;;;;;;7.57;3.65;;;;;;;;;;6094196;23;20034;-67
2021/09/08 13:40:25;;;;;;;5.43;3.47;;;;;;;;;;6094846;23;20085;-68
2021/09/08 13:42:51;;;;;;;5.68;3.75;;;;;;;;;;6094782;23;20006;-68
2021/09/08 13:45:17;;;;;;;7.70;3.83;;;;;;;;;;6095706;23;20439;-68
2021/09/08 13:47:42;;;;;;;5.47;3.30;;;;;;;;;;6095837;23;19998;-68
2021/09/08 13:50:08;;;;;;;7.07;3.38;;;;;;;;;;6095402;23;20002;-68
2021/09/08 13:52:33;;;;;;;10.05;3.55;;;;;;;;;;6094021;23;20013;-69
2021/09/08 13:55:00;;;;;;;5.53;3.55;;;;;;;;;;6095066;23;20317;-67
2021/09/08 13:57:26;;;;;;;4.65;3.25;;;;;;;;;;6096157;23;19999;-68
2021/09/08 13:59:51;;;;;;;13.38;3.78;;;;;;;;;;6069694;23;20387;-67
2021/09/08 14:02:17;;;;;;;7.60;3.03;;;;;;;;;;6095416;23;20041;-68
2021/09/08 14:04:42;;;;;;;7.22;2.85;;;;;;;;;;6092080;23;20019;-68
2021/09/08 14:07:08;;;;;;;9.20;3.08;;;;;;;;;;6094769;23;20002;-68
2021/09/08 14:09:34;;;;;;;9.18;3.03;;;;;;;;;;6095042;23;20005;-66
2021/09/08 14:12:00;;;;;;;22.92;3.95;;;;;;;;;;6094494;23;20065;-66
2021/09/08 14:14:25;;;;;;;5.03;3.25;;;;;;;;;;6095100;23;20010;-67
2021/09/08 14:16:51;;;;;;;8.50;3.70;;;;;;;;;;6094978;23;19998;-66
2021/09/08 14:19:19;;;;;;;8.63;3.13;;;;;;;;;;6095607;23;21113;-67
2021/09/08 14:21:45;;;;;;;13.57;3.90;;;;;;;;;;6094549;23;20077;-66
2021/09/08 14:24:11;;;;;;;6.90;3.08;;;;;;;;;;6094497;23;20861;-66
2021/09/08 14:26:37;;;;;;;5.88;3.20;;;;;;;;;;6069787;23;20002;-68
2021/09/08 14:29:02;;;;;;;4.50;2.90;;;;;;;;;;6095284;23;20420;-70